Huvudsida
METAR-TAF:

METAR-TAF

Flygplatser :

Elista, Ryssland

latitud: 46-22N, longitud: 044-20E, höjd: 150 m

Aktuellt väderrapport

Denna rapport gjordes för 28 minuter sedan, klockan 03:30 UTC
Stilla vind
Temperatur -3°C
Fuktighet 100%
Tryck 1019 hPa
Sikt: 0100 m

METAR: URWI 190330Z AUTO 00000MPS 0150 0100S // ///001/// M03/M03 Q1019 RMK QBB040

Tid: 07:58 (03:58 UTC)

Väderprognos

Denna rapport gjordes för 1 timme och 58 minuter sedan, klockan 02:00 UTC
Prognos gäller från 19 kl. 03 UTC till 19 kl. 12 UTC
Vind 8 kt från sydost i byarna ända upp till 21 kt
Sikt: 0200 m
Brutna moln på en höjd av 100 ft
underkyld dimma
Temporärt
från 19 kl. 06 UTC till 19 kl. 08 UTC
Sikt: 3100 m
Spridda moln på en höjd av 1100 ft
fuktdis
Blir
från 19 kl. 08 UTC till 19 kl. 10 UTC
Sikt: 3100 m
Få moln på en höjd av 1100 ft
fuktdis

TAF: URWI 190200Z 1903/1912 14004G11MPS 0200 FZFG BKN001 TEMPO 1906/1908 3100 BR SCT011 BECMG 1908/1910 3100 BR FEW011

Aktuella väderrapporter och prognoser från 4000 flygplatser (METAR- och TAF-rapporter).

De tillgängliga stationerna syns som gula och röda prickar på kartan.

För musen över prickarna för att se namnen på stationerna.

Klicka sedan för att få väderrapporter och prognoser.

För att ändra kartan: Klicka på de gröna knapparna med ett svart kors på för att zooma in; den gröna knappen med ett streck på för att zooma ut; eller på de gröna pilarna för angränsande kartor.


METAR-TAF: